Pagrindinis puslapis
METAR-TAF:

METAR-TAF

Oro uostai :

Čita, Rusija

platuma: 52-05N, ilguma: 113-29E, Aukštis: 685 m

Dabartinis oras

Ataskaita buvo paskelbta 22 minutes, ne 16:00 UTC
Vėjas 16 kt iš Vakarų
Temperatūra -1°C
Drėgmė 54%
Slėgis 1010 hPa
Matomumas 10 km arba daugiau

METAR: UIAA 201600Z AUTO 26008MPS 9999 NCD M01/M09 Q1010 RMK QFE699/0932

Laikas: 01:22 (16:22 UTC)

Prognozė

Ataskaita buvo paskelbta 2 valandos ir 22 minutes, ne 14:00 UTC
Prognozė galioja nuo 20 metu 15 UTC su 21 metu 15 UTC
Vėjas 16 kt iš Vakarų su gūsio iki 29 kt
Matomumas 10 km arba daugiau
Laikinai
nuo 20 metu 15 UTC su 20 metu 24 UTC
Vėjas 10 kt iš Pietų/Pietvakarių su gūsio iki 19 kt

TAF: UIAA 201400Z 2015/2115 27008G15MPS 9999 NSC TEMPO 2015/2024 21005G10MPS

Orai ataskaitas ir orų prognozės (METAR, TAF).

turimą stotys yra geltonos ir raudonos taškus žemėlapyje.

Perkelti pele per norėdami pamatyti stoties vardą.

Tada spustelėkite, norėdami matyti oro stebėjimo ir prognozės.

Norėdami pakeisti žemėlapį: spustelėkite ant žalios mygtukų su juodo kryžiaus žemyn,; žalią mygtuką su brūkšneliu, jei norite nutolinti; arba žalių rodyklių gretimoms žemėlapius.


METAR-TAF: